createdAt,value
2017-01-01T00:00:16.449Z,22.38
2017-01-01T00:00:56.948Z,22.38
2017-01-01T00:01:37.437Z,22.08
2017-01-01T00:02:17.922Z,22.38
2017-01-01T00:02:58.425Z,22.08
2017-01-01T00:03:38.916Z,22.38
2017-01-01T00:04:19.435Z,21.89
2017-01-01T00:04:59.922Z,22.28
2017-01-01T00:05:40.412Z,22.38
2017-01-01T00:06:20.913Z,22.38
2017-01-01T00:07:01.459Z,22.18
2017-01-01T00:07:41.962Z,22.18
2017-01-01T00:08:22.460Z,22.18
2017-01-01T00:09:02.961Z,22.18
2017-01-01T00:09:43.457Z,21.99
2017-01-01T00:10:23.959Z,22.08
2017-01-01T00:11:04.462Z,22.18
2017-01-01T00:11:44.958Z,22.28
2017-01-01T00:12:25.437Z,22.38
2017-01-01T00:13:05.933Z,21.99
2017-01-01T00:13:46.431Z,22.28
2017-01-01T00:14:26.913Z,22.28
2017-01-01T00:15:07.417Z,22.28
2017-01-01T00:15:47.906Z,22.18
2017-01-01T00:16:28.399Z,22.28
2017-01-01T00:17:08.881Z,22.18
2017-01-01T00:17:49.371Z,22.18
2017-01-01T00:18:29.892Z,22.28
2017-01-01T00:19:10.379Z,22.28
2017-01-01T00:19:50.887Z,22.28
2017-01-01T00:20:31.365Z,22.08
2017-01-01T00:21:11.865Z,22.18
2017-01-01T00:21:52.344Z,22.28
2017-01-01T00:22:32.852Z,22.28
2017-01-01T00:23:13.345Z,21.99
2017-01-01T00:23:53.857Z,22.28
2017-01-01T00:24:34.348Z,22.18
2017-01-01T00:25:14.839Z,22.08
2017-01-01T00:25:55.322Z,22.28
2017-01-01T00:26:35.819Z,22.18
2017-01-01T00:27:16.309Z,22.28
2017-01-01T00:27:56.791Z,22.18
2017-01-01T00:28:37.296Z,21.99
2017-01-01T00:29:17.787Z,21.99
2017-01-01T00:29:58.298Z,22.18
2017-01-01T00:30:38.787Z,22.28
2017-01-01T00:31:19.283Z,22.28
2017-01-01T00:31:59.767Z,21.99
2017-01-01T00:32:40.266Z,22.08
2017-01-01T00:33:20.748Z,21.99
2017-01-01T00:34:01.231Z,22.28
2017-01-01T00:34:41.723Z,22.28
2017-01-01T00:35:22.207Z,22.08
2017-01-01T00:36:02.713Z,22.28
2017-01-01T00:36:43.193Z,21.99
2017-01-01T00:37:23.679Z,22.18
2017-01-01T00:38:04.187Z,22.28
2017-01-01T00:38:44.679Z,22.28
2017-01-01T00:39:25.172Z,22.38
2017-01-01T00:40:05.680Z,22.38
2017-01-01T00:40:46.192Z,22.18
2017-01-01T00:41:26.676Z,22.28
2017-01-01T00:42:07.167Z,22.28
2017-01-01T00:42:47.655Z,22.18
2017-01-01T00:43:28.132Z,22.18
2017-01-01T00:44:08.629Z,22.18
2017-01-01T00:44:49.118Z,22.38
2017-01-01T00:45:29.637Z,22.28
2017-01-01T00:46:10.119Z,22.28
2017-01-01T00:46:50.611Z,22.38
2017-01-01T00:47:31.106Z,22.28
2017-01-01T00:48:11.593Z,22.18
2017-01-01T00:48:52.082Z,22.18
2017-01-01T00:49:32.566Z,22.28
2017-01-01T00:50:13.057Z,22.28
2017-01-01T00:50:53.544Z,22.18
2017-01-01T00:51:34.034Z,22.18
2017-01-01T00:52:14.530Z,22.28
2017-01-01T00:52:55.014Z,22.18
2017-01-01T00:53:35.518Z,22.28
2017-01-01T00:54:16.036Z,22.18
2017-01-01T00:54:56.530Z,22.38
2017-01-01T00:55:37.010Z,22.28
2017-01-01T00:56:17.518Z,22.18
2017-01-01T00:56:58.008Z,22.28
2017-01-01T00:57:38.501Z,22.28
2017-01-01T00:58:18.978Z,22.28
2017-01-01T00:58:59.553Z,22.28
2017-01-01T00:59:40.051Z,22.28
2017-01-01T01:00:20.548Z,22.08
2017-01-01T01:01:01.027Z,22.28
2017-01-01T01:01:41.529Z,22.18
2017-01-01T01:02:22.025Z,22.28
2017-01-01T01:03:02.510Z,22.28
2017-01-01T01:03:42.996Z,22.18
2017-01-01T01:04:23.499Z,22.08
2017-01-01T01:05:03.997Z,22.28
2017-01-01T01:05:44.521Z,22.18
2017-01-01T01:06:25.028Z,22.18
2017-01-01T01:07:05.520Z,22.18
2017-01-01T01:07:45.998Z,22.18
2017-01-01T01:08:26.491Z,22.18
2017-01-01T01:09:07.000Z,22.18
2017-01-01T01:09:47.493Z,22.18
2017-01-01T01:10:27.972Z,22.18
2017-01-01T01:11:08.470Z,22.18
2017-01-01T01:11:48.971Z,22.08
2017-01-01T01:12:29.457Z,22.18
2017-01-01T01:13:09.948Z,22.18
2017-01-01T01:13:50.439Z,22.08
2017-01-01T01:14:30.935Z,22.18
2017-01-01T01:15:11.426Z,22.28
2017-01-01T01:15:51.919Z,21.99
2017-01-01T01:16:32.401Z,22.18
2017-01-01T01:17:12.886Z,22.28
2017-01-01T01:17:53.383Z,22.18
2017-01-01T01:18:33.870Z,21.99
2017-01-01T01:19:14.347Z,22.18
2017-01-01T01:19:54.841Z,22.28
2017-01-01T01:20:35.328Z,22.18
2017-01-01T01:21:15.828Z,22.08
2017-01-01T01:21:56.330Z,22.18
2017-01-01T01:22:36.824Z,22.18
2017-01-01T01:23:17.307Z,22.18
2017-01-01T01:23:57.807Z,22.18
2017-01-01T01:24:38.295Z,22.08
2017-01-01T01:25:18.777Z,22.18
2017-01-01T01:25:59.269Z,22.18
2017-01-01T01:26:39.771Z,22.08
2017-01-01T01:27:20.282Z,21.99
2017-01-01T01:28:00.775Z,21.99
2017-01-01T01:28:41.269Z,22.08
2017-01-01T01:29:21.936Z,22.18
2017-01-01T01:30:02.427Z,22.08
2017-01-01T01:30:42.916Z,21.99
2017-01-01T01:31:23.400Z,22.08
2017-01-01T01:32:03.877Z,21.99
2017-01-01T01:32:44.379Z,22.08
2017-01-01T01:33:24.867Z,21.99
2017-01-01T01:34:05.378Z,22.18
2017-01-01T01:34:45.867Z,22.08
2017-01-01T01:35:26.385Z,21.99
2017-01-01T01:36:06.869Z,22.08
2017-01-01T01:36:47.365Z,22.08
2017-01-01T01:37:27.867Z,22.08
2017-01-01T01:38:08.378Z,21.99
2017-01-01T01:38:48.864Z,22.08
2017-01-01T01:39:29.359Z,21.99
2017-01-01T01:40:09.854Z,22.18
2017-01-01T01:40:50.331Z,22.08
2017-01-01T01:41:30.821Z,22.08
2017-01-01T01:42:11.316Z,21.99
2017-01-01T01:42:51.804Z,22.08
2017-01-01T01:43:32.288Z,21.99
2017-01-01T01:44:12.784Z,21.99
2017-01-01T01:44:53.282Z,21.99
2017-01-01T01:45:33.760Z,21.99
2017-01-01T01:46:14.251Z,21.99
2017-01-01T01:46:54.734Z,21.99
2017-01-01T01:47:35.210Z,21.99
2017-01-01T01:48:15.709Z,21.99
2017-01-01T01:48:56.250Z,22.08
2017-01-01T01:49:36.759Z,22.08
2017-01-01T01:50:17.248Z,21.89
2017-01-01T01:50:57.750Z,22.08
2017-01-01T01:51:38.251Z,21.99
2017-01-01T01:52:18.749Z,21.99
2017-01-01T01:52:59.243Z,21.89
2017-01-01T01:53:39.728Z,22.08
2017-01-01T01:54:20.227Z,21.99
2017-01-01T01:55:00.720Z,21.99
2017-01-01T01:55:41.200Z,22.08
2017-01-01T01:56:21.692Z,22.08
2017-01-01T01:57:02.188Z,21.99
2017-01-01T01:57:42.682Z,21.99
2017-01-01T01:58:23.168Z,22.08
2017-01-01T01:59:03.652Z,21.99
2017-01-01T01:59:44.357Z,21.99
2017-01-01T02:00:24.843Z,21.99
2017-01-01T02:01:05.341Z,21.99
2017-01-01T02:01:45.841Z,21.99
2017-01-01T02:02:26.324Z,21.99
2017-01-01T02:03:06.814Z,21.99
2017-01-01T02:03:47.295Z,22.18
2017-01-01T02:04:27.799Z,21.99
2017-01-01T02:05:08.297Z,22.08
2017-01-01T02:05:48.782Z,22.18
2017-01-01T02:06:29.266Z,22.08
2017-01-01T02:07:09.744Z,22.08
2017-01-01T02:07:50.246Z,22.28
2017-01-01T02:08:30.734Z,22.28
2017-01-01T02:09:11.235Z,22.08
2017-01-01T02:09:51.732Z,22.28
2017-01-01T02:10:32.230Z,22.08
2017-01-01T02:11:12.712Z,22.18
2017-01-01T02:11:53.210Z,22.18
2017-01-01T02:12:33.695Z,22.18
2017-01-01T02:13:14.183Z,22.18
2017-01-01T02:13:54.675Z,22.18
2017-01-01T02:14:35.171Z,22.38
2017-01-01T02:15:15.653Z,22.18
2017-01-01T02:15:56.139Z,22.38
2017-01-01T02:16:36.625Z,22.47
2017-01-01T02:17:17.119Z,22.18
2017-01-01T02:17:57.602Z,22.18
2017-01-01T02:18:38.092Z,22.38
2017-01-01T02:19:18.599Z,22.38
2017-01-01T02:19:59.078Z,22.18
2017-01-01T02:20:39.589Z,22.08
2017-01-01T02:21:20.072Z,22.18
2017-01-01T02:22:00.564Z,22.18
2017-01-01T02:22:41.057Z,22.18
2017-01-01T02:23:21.544Z,22.18
2017-01-01T02:24:02.041Z,22.18
2017-01-01T02:24:42.532Z,22.47
2017-01-01T02:25:23.025Z,22.56
2017-01-01T02:26:03.514Z,22.28
2017-01-01T02:26:44.013Z,22.56
2017-01-01T02:27:24.514Z,22.56
2017-01-01T02:28:05.007Z,22.47
2017-01-01T02:28:45.497Z,22.56
2017-01-01T02:29:25.989Z,22.56
2017-01-01T02:30:06.480Z,22.56
2017-01-01T02:30:46.960Z,22.47
2017-01-01T02:31:27.468Z,22.66
2017-01-01T02:32:07.958Z,22.56
2017-01-01T02:32:48.472Z,22.47
2017-01-01T02:33:28.959Z,22.66
2017-01-01T02:34:09.467Z,22.56
2017-01-01T02:34:49.955Z,22.66
2017-01-01T02:35:30.447Z,22.38
2017-01-01T02:36:10.950Z,22.47
2017-01-01T02:36:51.430Z,22.38
2017-01-01T02:37:31.925Z,22.56
2017-01-01T02:38:12.411Z,22.38
2017-01-01T02:38:52.908Z,22.47
2017-01-01T02:39:33.397Z,22.47
2017-01-01T02:40:13.908Z,22.56
2017-01-01T02:40:54.394Z,22.47
2017-01-01T02:41:34.909Z,22.47
2017-01-01T02:42:15.401Z,22.56
2017-01-01T02:42:55.910Z,22.56
2017-01-01T02:43:36.400Z,22.38
2017-01-01T02:44:16.893Z,22.47
2017-01-01T02:44:57.392Z,22.38
2017-01-01T02:45:37.912Z,22.38
2017-01-01T02:46:18.398Z,22.28
2017-01-01T02:46:58.908Z,22.47
2017-01-01T02:47:39.392Z,22.38
2017-01-01T02:48:19.887Z,22.28
2017-01-01T02:49:00.367Z,22.28
2017-01-01T02:49:40.858Z,22.18
2017-01-01T02:50:21.347Z,22.28
2017-01-01T02:51:01.838Z,22.28
2017-01-01T02:51:42.351Z,22.28
2017-01-01T02:52:22.843Z,22.28
2017-01-01T02:53:03.332Z,22.18
2017-01-01T02:53:43.836Z,22.66
2017-01-01T02:54:24.350Z,22.28
2017-01-01T02:55:04.833Z,22.28
2017-01-01T02:55:45.328Z,22.38
2017-01-01T02:56:25.810Z,22.28
2017-01-01T02:57:06.305Z,22.38
2017-01-01T02:57:46.809Z,22.38
2017-01-01T02:58:27.284Z,22.38
2017-01-01T02:59:07.789Z,22.28
2017-01-01T02:59:48.278Z,22.38
2017-01-01T03:00:28.772Z,22.28
2017-01-01T03:01:09.256Z,22.18
2017-01-01T03:01:49.759Z,22.28
2017-01-01T03:02:30.253Z,22.38
2017-01-01T03:03:10.738Z,22.38
2017-01-01T03:03:51.229Z,22.28
2017-01-01T03:04:31.720Z,22.38
2017-01-01T03:05:12.230Z,22.28
2017-01-01T03:05:52.721Z,22.38
2017-01-01T03:06:33.239Z,22.38
2017-01-01T03:07:13.722Z,22.28
2017-01-01T03:07:54.213Z,22.38
2017-01-01T03:08:34.716Z,22.56
2017-01-01T03:09:15.228Z,22.38
2017-01-01T03:09:55.718Z,22.38
2017-01-01T03:10:36.214Z,22.38
2017-01-01T03:11:16.713Z,22.38
2017-01-01T03:11:57.229Z,22.47
2017-01-01T03:14:10.047Z,22.38
2017-01-01T03:14:50.529Z,22.56
2017-01-01T03:15:31.025Z,22.38
2017-01-01T03:16:11.525Z,22.47
2017-01-01T03:16:52.001Z,22.47
2017-01-01T03:17:32.505Z,22.47
2017-01-01T03:18:12.983Z,22.47
2017-01-01T03:18:53.482Z,22.47
2017-01-01T03:19:33.972Z,22.56
2017-01-01T03:20:14.490Z,22.47
2017-01-01T03:20:54.973Z,22.47
2017-01-01T03:21:35.467Z,22.47
2017-01-01T03:22:15.946Z,22.56
2017-01-01T03:22:56.432Z,22.47
2017-01-01T03:23:36.926Z,22.47
2017-01-01T03:24:17.415Z,22.38
2017-01-01T03:24:57.914Z,22.56
2017-01-01T03:25:38.417Z,22.47
2017-01-01T03:26:18.916Z,22.38
2017-01-01T03:26:59.411Z,22.56
2017-01-01T03:27:39.891Z,22.47
2017-01-01T03:28:20.401Z,22.56
2017-01-01T03:29:00.890Z,22.38
2017-01-01T03:29:41.389Z,22.38
2017-01-01T03:30:21.888Z,22.47
2017-01-01T03:31:02.374Z,22.18
2017-01-01T03:31:42.860Z,22.28
2017-01-01T03:32:23.357Z,22.47
2017-01-01T03:33:03.861Z,22.38
2017-01-01T03:33:44.351Z,22.47
2017-01-01T03:34:24.834Z,22.38
2017-01-01T03:35:05.357Z,22.47
2017-01-01T03:35:45.817Z,22.56
2017-01-01T03:36:26.306Z,22.47
2017-01-01T03:37:06.801Z,22.38
2017-01-01T03:37:47.298Z,22.47
2017-01-01T03:38:27.778Z,22.47
2017-01-01T03:39:08.272Z,22.38
2017-01-01T03:39:48.765Z,22.28
2017-01-01T03:40:29.258Z,22.47
2017-01-01T03:41:09.750Z,22.28
2017-01-01T03:41:50.242Z,22.47
2017-01-01T03:42:30.745Z,22.38
2017-01-01T03:43:11.273Z,22.28
2017-01-01T03:43:51.766Z,22.28
2017-01-01T03:44:32.255Z,22.47
2017-01-01T03:45:12.740Z,22.28
2017-01-01T03:45:53.252Z,22.28
2017-01-01T03:46:33.746Z,22.38
2017-01-01T03:47:14.243Z,22.38
2017-01-01T03:47:54.742Z,22.38
2017-01-01T03:48:35.249Z,22.38
2017-01-01T03:49:15.740Z,22.47
2017-01-01T03:49:56.229Z,22.66
2017-01-01T03:50:36.716Z,22.18
2017-01-01T03:51:17.212Z,22.66
2017-01-01T03:51:57.705Z,22.66
2017-01-01T03:52:38.193Z,22.66
2017-01-01T03:53:18.677Z,22.66
2017-01-01T03:53:59.161Z,22.66
2017-01-01T03:54:39.665Z,22.76
2017-01-01T03:55:20.155Z,22.56
2017-01-01T03:56:00.637Z,22.85
2017-01-01T03:56:41.147Z,22.56
2017-01-01T03:57:21.641Z,22.85
2017-01-01T03:58:02.140Z,22.66
2017-01-01T03:58:42.624Z,22.66
2017-01-01T03:59:23.123Z,22.66
2017-01-01T04:00:03.623Z,22.66
2017-01-01T04:00:44.102Z,22.66
2017-01-01T04:01:24.604Z,22.85
2017-01-01T04:02:05.084Z,22.76
2017-01-01T04:02:45.604Z,22.76
2017-01-01T04:03:26.099Z,22.85
2017-01-01T04:04:06.598Z,22.76
2017-01-01T04:04:47.083Z,22.76
2017-01-01T04:05:27.582Z,22.95
2017-01-01T04:06:08.090Z,23.05
2017-01-01T04:06:48.580Z,22.85
2017-01-01T04:07:29.068Z,22.76
2017-01-01T04:08:09.565Z,22.66
2017-01-01T04:08:50.060Z,22.76
2017-01-01T04:09:30.541Z,22.76
2017-01-01T04:10:11.962Z,22.66
2017-01-01T04:10:52.456Z,22.56
2017-01-01T04:11:32.947Z,22.76
2017-01-01T04:12:13.434Z,22.76
2017-01-01T04:12:53.929Z,22.66
2017-01-01T04:13:34.428Z,22.76
2017-01-01T04:14:15.041Z,22.76
2017-01-01T04:14:55.531Z,22.76
2017-01-01T04:16:53.207Z,22.66
2017-01-01T04:17:33.704Z,22.76
2017-01-01T04:18:14.192Z,22.85
2017-01-01T04:18:54.704Z,22.76
2017-01-01T04:19:35.190Z,22.85
2017-01-01T04:20:15.685Z,22.85
2017-01-01T04:20:56.167Z,22.85
2017-01-01T04:21:36.654Z,22.76
2017-01-01T04:22:17.145Z,22.95
2017-01-01T04:22:57.635Z,22.95
2017-01-01T04:23:38.129Z,22.95
2017-01-01T04:24:18.625Z,22.95
2017-01-01T04:24:59.103Z,22.85
2017-01-01T04:25:39.592Z,22.95
2017-01-01T04:26:20.081Z,22.95
2017-01-01T04:27:00.757Z,23.05
2017-01-01T04:27:41.254Z,22.85
2017-01-01T04:28:21.732Z,22.85
2017-01-01T04:29:02.226Z,22.85
2017-01-01T04:29:42.724Z,22.85
2017-01-01T04:30:23.179Z,22.85
2017-01-01T04:31:03.671Z,22.85
2017-01-01T04:31:44.160Z,23.05
2017-01-01T04:32:24.645Z,23.05
2017-01-01T04:33:05.141Z,22.85
2017-01-01T04:33:45.625Z,23.14
2017-01-01T04:34:26.120Z,22.76
2017-01-01T04:35:06.623Z,22.95
2017-01-01T04:35:47.133Z,22.95
2017-01-01T04:36:27.621Z,23.14
2017-01-01T04:37:08.134Z,22.76
2017-01-01T04:37:48.621Z,22.95
2017-01-01T04:38:29.167Z,23.14
2017-01-01T04:39:09.650Z,22.95
2017-01-01T04:39:50.147Z,22.95
2017-01-01T04:40:30.633Z,23.14
2017-01-01T04:41:11.130Z,23.05
2017-01-01T04:41:51.620Z,23.05
2017-01-01T04:42:32.162Z,23.05
2017-01-01T04:43:12.662Z,23.05
2017-01-01T04:43:53.169Z,23.05
2017-01-01T04:44:33.662Z,23.14
2017-01-01T04:45:14.159Z,23.14
2017-01-01T04:45:54.643Z,23.14
2017-01-01T04:46:35.133Z,22.95
2017-01-01T04:47:15.616Z,23.05
2017-01-01T04:47:56.110Z,22.95
2017-01-01T04:48:36.610Z,23.05
2017-01-01T04:49:17.121Z,23.05
2017-01-01T04:49:57.608Z,23.05
2017-01-01T04:50:38.106Z,23.05
2017-01-01T04:51:18.588Z,23.05
2017-01-01T04:51:59.086Z,23.05
2017-01-01T04:52:39.581Z,23.05
2017-01-01T04:53:20.058Z,23.05
2017-01-01T04:54:00.567Z,23.05
2017-01-01T04:54:41.053Z,23.05
2017-01-01T04:55:21.567Z,23.05
2017-01-01T04:56:02.055Z,23.05
2017-01-01T04:56:42.547Z,23.14
2017-01-01T04:57:23.263Z,22.95
2017-01-01T04:58:03.771Z,23.14
2017-01-01T04:58:44.259Z,23.05
2017-01-01T04:59:24.755Z,23.14
2017-01-01T05:00:05.257Z,22.95
2017-01-01T05:00:45.778Z,22.95
2017-01-01T05:01:26.259Z,23.05
2017-01-01T05:02:06.750Z,22.95
2017-01-01T05:02:47.240Z,22.95
2017-01-01T05:03:27.736Z,23.14
2017-01-01T05:04:08.217Z,22.95
2017-01-01T05:04:48.701Z,23.14
2017-01-01T05:05:29.198Z,22.95
2017-01-01T05:06:09.690Z,22.85
2017-01-01T05:06:50.182Z,22.95
2017-01-01T05:07:30.663Z,22.95
2017-01-01T05:08:11.149Z,23.05
2017-01-01T05:08:51.644Z,23.05
2017-01-01T05:09:32.136Z,23.05
2017-01-01T05:10:12.628Z,23.05
2017-01-01T05:10:53.224Z,23.05
2017-01-01T05:11:33.700Z,23.05
2017-01-01T05:12:14.196Z,23.14
2017-01-01T05:12:54.671Z,23.05
2017-01-01T05:13:35.153Z,23.14
2017-01-01T05:14:15.652Z,23.05
2017-01-01T05:14:56.142Z,22.95
2017-01-01T05:15:36.635Z,22.85
2017-01-01T05:16:17.121Z,23.14
2017-01-01T05:16:57.604Z,23.05
2017-01-01T05:17:38.098Z,23.14
2017-01-01T05:18:18.580Z,22.95
2017-01-01T05:18:59.069Z,22.95
2017-01-01T05:19:39.550Z,23.14
2017-01-01T05:20:20.034Z,22.95
2017-01-01T05:21:00.528Z,23.05
2017-01-01T05:21:41.029Z,23.05
2017-01-01T05:22:21.549Z,23.05
2017-01-01T05:23:02.035Z,23.05
2017-01-01T05:23:42.532Z,23.05
2017-01-01T05:24:23.011Z,22.95
2017-01-01T05:25:03.487Z,23.05
2017-01-01T05:25:43.999Z,23.05
2017-01-01T05:26:24.482Z,23.05
2017-01-01T05:27:04.978Z,23.05
2017-01-01T05:27:45.469Z,23.05
2017-01-01T05:28:25.962Z,23.14
2017-01-01T05:29:06.455Z,23.24
2017-01-01T05:29:46.929Z,23.24
2017-01-01T05:30:27.434Z,23.24
2017-01-01T05:31:07.924Z,23.14
2017-01-01T05:31:48.438Z,23.14
2017-01-01T05:32:28.923Z,23.14
2017-01-01T05:33:09.420Z,23.14
2017-01-01T05:33:49.901Z,23.14
2017-01-01T05:34:30.380Z,23.14
2017-01-01T05:35:10.879Z,23.24
2017-01-01T05:35:51.372Z,23.33
2017-01-01T05:36:31.862Z,23.33
2017-01-01T05:37:12.346Z,23.24
2017-01-01T05:37:52.833Z,23.14
2017-01-01T05:38:33.324Z,23.14
2017-01-01T05:39:13.816Z,23.33
2017-01-01T05:39:54.323Z,23.14
2017-01-01T05:40:34.813Z,23.14
2017-01-01T05:41:15.310Z,23.14
2017-01-01T05:41:55.793Z,23.14
2017-01-01T05:42:36.289Z,23.14
2017-01-01T05:43:16.789Z,23.14
2017-01-01T05:43:57.277Z,23.14
2017-01-01T05:44:37.767Z,23.14
2017-01-01T05:45:18.259Z,23.14
2017-01-01T05:45:58.752Z,23.14
2017-01-01T05:46:39.236Z,23.14
2017-01-01T05:47:19.733Z,23.14
2017-01-01T05:48:00.234Z,23.05
2017-01-01T05:48:40.729Z,23.14
2017-01-01T05:49:21.233Z,23.14
2017-01-01T05:50:01.715Z,23.24
2017-01-01T05:50:42.211Z,23.14
2017-01-01T05:51:22.703Z,23.14
2017-01-01T05:52:03.198Z,23.14
2017-01-01T05:52:43.680Z,23.14
2017-01-01T05:53:24.424Z,23.14
2017-01-01T05:54:04.909Z,23.14
2017-01-01T05:54:45.400Z,23.14
2017-01-01T05:55:25.904Z,23.14
2017-01-01T05:56:06.401Z,23.14
2017-01-01T05:56:46.895Z,23.43
2017-01-01T05:57:27.376Z,23.14
2017-01-01T05:58:07.873Z,23.14
2017-01-01T05:58:48.366Z,23.14
2017-01-01T05:59:28.875Z,23.14
2017-01-01T06:00:09.353Z,23.52
2017-01-01T06:00:49.846Z,23.24
2017-01-01T06:01:30.346Z,23.24
2017-01-01T06:02:10.858Z,23.14
2017-01-01T06:02:51.348Z,23.14
2017-01-01T06:03:31.857Z,23.24
2017-01-01T06:04:12.348Z,23.52
2017-01-01T06:04:52.854Z,23.52
2017-01-01T06:05:33.348Z,23.14
2017-01-01T06:06:13.841Z,23.14
2017-01-01T06:06:54.333Z,23.33
2017-01-01T06:07:34.812Z,23.14
2017-01-01T06:08:15.318Z,23.52
2017-01-01T06:08:55.798Z,23.14
2017-01-01T06:09:36.285Z,23.05
2017-01-01T06:10:16.767Z,23.33
2017-01-01T06:10:57.259Z,23.33
2017-01-01T06:11:37.747Z,23.33
2017-01-01T06:12:18.242Z,23.33
2017-01-01T06:12:58.753Z,23.52
2017-01-01T06:13:39.238Z,23.33
2017-01-01T06:14:19.729Z,23.33
2017-01-01T06:15:00.220Z,23.24
2017-01-01T06:15:40.714Z,23.43
2017-01-01T06:16:21.201Z,23.24
2017-01-01T06:17:01.745Z,23.43
2017-01-01T06:17:42.236Z,23.33
2017-01-01T06:18:22.732Z,23.33
2017-01-01T06:19:03.211Z,23.14
2017-01-01T06:19:43.688Z,23.33
2017-01-01T06:20:24.197Z,23.33
2017-01-01T06:21:04.682Z,23.52
2017-01-01T06:21:45.177Z,23.43
2017-01-01T06:22:25.676Z,23.52
2017-01-01T06:23:06.175Z,23.52
2017-01-01T06:23:46.908Z,23.24
2017-01-01T06:24:27.401Z,23.33
2017-01-01T06:25:07.884Z,23.33
2017-01-01T06:25:48.396Z,23.52
2017-01-01T06:26:28.885Z,23.33
2017-01-01T06:27:09.374Z,23.52
2017-01-01T06:27:49.855Z,23.14
2017-01-01T06:28:30.347Z,23.33
2017-01-01T06:29:10.837Z,23.14
2017-01-01T06:29:51.327Z,23.52
2017-01-01T06:30:31.821Z,23.05
2017-01-01T06:31:12.302Z,23.43
2017-01-01T06:31:52.795Z,23.52
2017-01-01T06:32:33.285Z,23.14
2017-01-01T06:33:13.771Z,23.14
2017-01-01T06:33:54.265Z,23.14
2017-01-01T06:34:34.762Z,23.14
2017-01-01T06:35:15.246Z,23.14
2017-01-01T06:35:55.731Z,23.14
2017-01-01T06:36:36.219Z,23.14
2017-01-01T06:37:16.713Z,23.14
2017-01-01T06:37:57.207Z,23.52
2017-01-01T06:38:37.672Z,23.14
2017-01-01T06:39:18.189Z,23.14
2017-01-01T06:39:58.676Z,23.05
2017-01-01T06:40:39.175Z,23.05
2017-01-01T06:41:19.661Z,23.14
2017-01-01T06:42:00.155Z,23.43
2017-01-01T06:42:40.639Z,23.14
2017-01-01T06:43:21.115Z,23.14
2017-01-01T06:44:01.605Z,23.14
2017-01-01T06:44:42.105Z,23.14
2017-01-01T06:45:22.604Z,23.14
2017-01-01T06:46:03.101Z,23.14
2017-01-01T06:46:43.584Z,23.14
2017-01-01T06:47:24.073Z,23.14
2017-01-01T06:48:04.556Z,23.14
2017-01-01T06:48:45.078Z,23.14
2017-01-01T06:49:25.563Z,23.33
2017-01-01T06:50:06.062Z,23.33
2017-01-01T06:50:46.552Z,23.24
2017-01-01T06:51:27.036Z,23.14
2017-01-01T06:52:07.518Z,23.24
2017-01-01T06:52:47.999Z,23.33
2017-01-01T06:53:28.505Z,23.33
2017-01-01T06:54:08.997Z,23.24
2017-01-01T06:54:49.493Z,23.33
2017-01-01T06:55:29.989Z,23.24
2017-01-01T06:56:10.474Z,23.14
2017-01-01T06:56:50.963Z,23.33
2017-01-01T06:57:31.450Z,23.14
2017-01-01T06:58:11.951Z,23.14
2017-01-01T06:58:52.442Z,23.24
2017-01-01T07:00:50.145Z,23.05
2017-01-01T07:01:30.641Z,23.24
2017-01-01T07:02:11.128Z,23.24
2017-01-01T07:02:51.616Z,23.14
2017-01-01T07:03:32.095Z,23.14
2017-01-01T07:04:12.596Z,23.14
2017-01-01T07:04:53.087Z,23.14
2017-01-01T07:05:33.575Z,23.14
2017-01-01T07:06:14.063Z,23.24
2017-01-01T07:06:54.547Z,23.14
2017-01-01T07:07:35.057Z,23.05
2017-01-01T07:08:15.543Z,23.14
2017-01-01T07:08:56.037Z,23.14
2017-01-01T07:09:36.540Z,22.95
2017-01-01T07:10:17.033Z,23.14
2017-01-01T07:10:57.519Z,22.95
2017-01-01T07:11:38.013Z,23.24
2017-01-01T07:12:18.514Z,23.14
2017-01-01T07:12:59.007Z,22.95
2017-01-01T07:13:39.495Z,23.05
2017-01-01T07:14:19.988Z,22.95
2017-01-01T07:15:00.496Z,22.95
2017-01-01T07:15:40.993Z,22.95
2017-01-01T07:16:21.493Z,22.95
2017-01-01T07:17:01.985Z,22.95
2017-01-01T07:17:42.481Z,23.14
2017-01-01T07:18:22.972Z,23.14
2017-01-01T07:19:03.458Z,23.05
2017-01-01T07:19:43.950Z,23.05
2017-01-01T07:20:24.523Z,22.95
2017-01-01T07:21:05.012Z,22.95
2017-01-01T07:21:45.494Z,23.05
2017-01-01T07:22:25.982Z,22.95
2017-01-01T07:23:06.476Z,23.05
2017-01-01T07:23:46.973Z,23.05
2017-01-01T07:24:27.456Z,23.05
2017-01-01T07:25:07.954Z,22.85
2017-01-01T07:25:48.449Z,23.05
2017-01-01T07:26:28.948Z,23.05
2017-01-01T07:27:09.435Z,23.05
2017-01-01T07:27:49.936Z,23.05
2017-01-01T07:28:30.423Z,23.05
2017-01-01T07:29:10.915Z,23.14
2017-01-01T07:29:51.399Z,23.05
2017-01-01T07:30:31.883Z,23.05
2017-01-01T07:31:12.379Z,23.05
2017-01-01T07:31:52.869Z,23.14
2017-01-01T07:32:33.360Z,22.95
2017-01-01T07:33:13.844Z,23.14
2017-01-01T07:33:54.326Z,23.14
2017-01-01T07:34:34.824Z,22.95
2017-01-01T07:35:15.313Z,23.05
2017-01-01T07:35:55.812Z,23.05
2017-01-01T07:36:36.303Z,22.95
2017-01-01T07:37:16.792Z,23.05
2017-01-01T07:37:57.284Z,22.95
2017-01-01T07:38:37.771Z,23.05
2017-01-01T07:39:18.267Z,23.05
2017-01-01T07:39:58.758Z,22.95
2017-01-01T07:40:39.255Z,22.95
2017-01-01T07:41:19.753Z,23.14
2017-01-01T07:42:00.241Z,23.05
2017-01-01T07:42:40.728Z,23.05
2017-01-01T07:43:21.210Z,23.05
2017-01-01T07:44:01.718Z,23.14
2017-01-01T07:44:42.206Z,22.95
2017-01-01T07:45:22.719Z,23.05
2017-01-01T07:46:03.205Z,23.14
2017-01-01T07:46:43.719Z,23.05
2017-01-01T07:47:24.207Z,23.05
2017-01-01T07:48:04.711Z,23.14
2017-01-01T07:48:45.198Z,23.05
2017-01-01T07:49:25.697Z,23.05
2017-01-01T07:50:06.201Z,23.14
2017-01-01T07:50:46.712Z,23.05
2017-01-01T07:51:27.199Z,23.05
2017-01-01T07:52:07.695Z,23.14
2017-01-01T07:52:48.176Z,23.14
2017-01-01T07:53:28.676Z,23.05
2017-01-01T07:54:09.166Z,23.05
2017-01-01T07:54:49.912Z,22.95
2017-01-01T07:55:30.402Z,23.14
2017-01-01T07:56:10.907Z,23.05
2017-01-01T07:56:51.396Z,22.95
2017-01-01T07:57:31.892Z,23.05
2017-01-01T07:58:12.374Z,22.95
2017-01-01T07:58:52.863Z,23.05
2017-01-01T07:59:33.354Z,23.14
2017-01-01T08:00:13.840Z,23.14
2017-01-01T08:00:54.353Z,22.95
2017-01-01T08:01:34.841Z,22.85
2017-01-01T08:02:15.351Z,22.85
2017-01-01T08:02:55.839Z,22.76
2017-01-01T08:03:36.331Z,23.14
2017-01-01T08:04:16.820Z,22.95
2017-01-01T08:04:57.309Z,23.05
2017-01-01T08:05:37.802Z,22.95
2017-01-01T08:06:18.289Z,23.05
2017-01-01T08:06:58.804Z,23.14
2017-01-01T08:07:39.287Z,22.76
2017-01-01T08:08:19.785Z,22.95
2017-01-01T08:09:00.279Z,22.85
2017-01-01T08:09:40.763Z,22.95
2017-01-01T08:10:21.250Z,22.85
2017-01-01T08:11:01.732Z,22.85
2017-01-01T08:11:42.230Z,23.05
2017-01-01T08:12:22.729Z,22.85
2017-01-01T08:13:03.239Z,22.85
2017-01-01T08:13:43.731Z,22.76
2017-01-01T08:14:24.220Z,22.95
2017-01-01T08:15:04.705Z,22.85
2017-01-01T08:15:45.188Z,22.95
2017-01-01T08:16:25.684Z,23.05
2017-01-01T08:17:06.174Z,22.95
2017-01-01T08:17:46.671Z,22.95
2017-01-01T08:18:27.168Z,22.85
2017-01-01T08:19:07.691Z,23.05
2017-01-01T08:19:48.188Z,23.05
2017-01-01T08:20:28.690Z,23.05
2017-01-01T08:21:09.171Z,22.76
2017-01-01T08:21:49.664Z,22.85
2017-01-01T08:22:30.160Z,22.95
2017-01-01T08:23:10.682Z,22.66
2017-01-01T08:23:51.166Z,22.85
2017-01-01T08:24:31.674Z,22.85
2017-01-01T08:25:12.287Z,22.76
2017-01-01T08:25:52.792Z,22.76
2017-01-01T08:26:33.273Z,22.85
2017-01-01T08:27:13.774Z,22.76
2017-01-01T08:27:54.263Z,22.66
2017-01-01T08:28:34.771Z,22.85
2017-01-01T08:29:15.260Z,22.85
2017-01-01T08:29:55.770Z,22.66
2017-01-01T08:30:36.255Z,22.66
2017-01-01T08:31:16.768Z,22.76
2017-01-01T08:31:57.256Z,22.76
2017-01-01T08:32:37.752Z,22.66
2017-01-01T08:33:18.250Z,22.76
2017-01-01T08:33:58.748Z,22.85
2017-01-01T08:34:39.246Z,22.66
2017-01-01T08:35:19.729Z,22.76
2017-01-01T08:36:00.215Z,22.66
2017-01-01T08:36:40.701Z,22.66
2017-01-01T08:37:21.193Z,22.66
2017-01-01T08:38:01.688Z,22.66
2017-01-01T08:38:42.179Z,22.66
2017-01-01T08:39:22.667Z,22.66
2017-01-01T08:40:03.153Z,22.66
2017-01-01T08:40:43.652Z,22.76
2017-01-01T08:41:24.140Z,22.66
2017-01-01T08:42:04.641Z,22.85
2017-01-01T08:42:45.133Z,22.76
2017-01-01T08:43:25.623Z,22.66
2017-01-01T08:44:06.114Z,22.76
2017-01-01T08:44:46.605Z,22.76
2017-01-01T08:45:27.118Z,22.76